sensor_id;sensor_type;location;lat;lon;timestamp;P1;durP1;ratioP1;P2;durP2;ratioP2
84042;SDS011;74129;52.540;13.416;2024-02-28T00:00:12;13.30;;;7.50;;
84042;SDS011;74129;52.540;13.416;2024-02-28T00:02:59;14.60;;;7.90;;
84042;SDS011;74129;52.540;13.416;2024-02-28T00:05:25;16.60;;;8.60;;
84042;SDS011;74129;52.540;13.416;2024-02-28T00:07:52;14.90;;;8.30;;
84042;SDS011;74129;52.540;13.416;2024-02-28T00:10:19;17.10;;;8.80;;
84042;SDS011;74129;52.540;13.416;2024-02-28T00:12:46;18.70;;;9.40;;
84042;SDS011;74129;52.540;13.416;2024-02-28T00:15:12;13.80;;;6.30;;
84042;SDS011;74129;52.540;13.416;2024-02-28T00:17:38;15.20;;;7.70;;
84042;SDS011;74129;52.540;13.416;2024-02-28T00:20:07;18.00;;;9.10;;
84042;SDS011;74129;52.540;13.416;2024-02-28T00:22:35;16.60;;;7.70;;
84042;SDS011;74129;52.540;13.416;2024-02-28T00:25:05;15.10;;;7.90;;
84042;SDS011;74129;52.540;13.416;2024-02-28T00:27:33;8.70;;;4.30;;
84042;SDS011;74129;52.540;13.416;2024-02-28T00:30:00;16.40;;;8.30;;
84042;SDS011;74129;52.540;13.416;2024-02-28T00:32:27;16.20;;;8.20;;
84042;SDS011;74129;52.540;13.416;2024-02-28T00:34:53;18.90;;;9.60;;
84042;SDS011;74129;52.540;13.416;2024-02-28T00:37:19;15.80;;;8.00;;
84042;SDS011;74129;52.540;13.416;2024-02-28T00:39:46;18.00;;;8.10;;
84042;SDS011;74129;52.540;13.416;2024-02-28T00:42:12;18.50;;;10.00;;
84042;SDS011;74129;52.540;13.416;2024-02-28T00:44:39;17.60;;;9.30;;
84042;SDS011;74129;52.540;13.416;2024-02-28T00:47:09;13.70;;;6.50;;
84042;SDS011;74129;52.540;13.416;2024-02-28T00:49:35;9.80;;;5.20;;
84042;SDS011;74129;52.540;13.416;2024-02-28T00:52:02;13.00;;;6.30;;
84042;SDS011;74129;52.540;13.416;2024-02-28T00:54:28;10.70;;;5.80;;
84042;SDS011;74129;52.540;13.416;2024-02-28T00:56:55;9.40;;;4.90;;
84042;SDS011;74129;52.540;13.416;2024-02-28T00:59:21;17.80;;;8.20;;
84042;SDS011;74129;52.540;13.416;2024-02-28T01:01:48;15.80;;;7.70;;
84042;SDS011;74129;52.540;13.416;2024-02-28T01:04:14;14.20;;;7.50;;
84042;SDS011;74129;52.540;13.416;2024-02-28T01:06:42;14.50;;;6.70;;
84042;SDS011;74129;52.540;13.416;2024-02-28T01:09:08;14.90;;;7.10;;
84042;SDS011;74129;52.540;13.416;2024-02-28T01:11:34;13.40;;;6.80;;
84042;SDS011;74129;52.540;13.416;2024-02-28T01:14:01;10.60;;;5.60;;
84042;SDS011;74129;52.540;13.416;2024-02-28T01:16:27;17.60;;;6.80;;
84042;SDS011;74129;52.540;13.416;2024-02-28T01:18:54;12.10;;;6.80;;
84042;SDS011;74129;52.540;13.416;2024-02-28T01:21:20;14.80;;;7.40;;
84042;SDS011;74129;52.540;13.416;2024-02-28T01:23:46;17.70;;;7.60;;
84042;SDS011;74129;52.540;13.416;2024-02-28T01:26:13;14.10;;;7.60;;
84042;SDS011;74129;52.540;13.416;2024-02-28T01:28:39;12.50;;;7.00;;
84042;SDS011;74129;52.540;13.416;2024-02-28T01:31:06;16.20;;;8.20;;
84042;SDS011;74129;52.540;13.416;2024-02-28T01:33:33;12.50;;;7.20;;
84042;SDS011;74129;52.540;13.416;2024-02-28T01:36:00;15.50;;;7.00;;
84042;SDS011;74129;52.540;13.416;2024-02-28T01:38:27;11.00;;;6.60;;
84042;SDS011;74129;52.540;13.416;2024-02-28T01:40:53;14.10;;;8.00;;
84042;SDS011;74129;52.540;13.416;2024-02-28T01:43:20;12.30;;;5.60;;
84042;SDS011;74129;52.540;13.416;2024-02-28T01:45:46;12.10;;;6.70;;
84042;SDS011;74129;52.540;13.416;2024-02-28T01:48:12;16.30;;;8.50;;
84042;SDS011;74129;52.540;13.416;2024-02-28T01:50:39;11.60;;;6.40;;
84042;SDS011;74129;52.540;13.416;2024-02-28T01:53:08;14.90;;;7.60;;
84042;SDS011;74129;52.540;13.416;2024-02-28T01:55:37;15.20;;;7.20;;
84042;SDS011;74129;52.540;13.416;2024-02-28T01:58:04;15.20;;;7.30;;
84042;SDS011;74129;52.540;13.416;2024-02-28T02:00:32;11.60;;;7.00;;
84042;SDS011;74129;52.540;13.416;2024-02-28T02:03:00;12.10;;;6.90;;
84042;SDS011;74129;52.540;13.416;2024-02-28T02:05:29;12.60;;;6.50;;
84042;SDS011;74129;52.540;13.416;2024-02-28T02:07:57;12.70;;;7.00;;
84042;SDS011;74129;52.540;13.416;2024-02-28T02:10:27;11.10;;;6.60;;
84042;SDS011;74129;52.540;13.416;2024-02-28T02:12:54;13.10;;;7.10;;
84042;SDS011;74129;52.540;13.416;2024-02-28T02:15:20;14.90;;;7.80;;
84042;SDS011;74129;52.540;13.416;2024-02-28T02:17:50;10.50;;;6.40;;
84042;SDS011;74129;52.540;13.416;2024-02-28T02:20:21;12.20;;;5.70;;
84042;SDS011;74129;52.540;13.416;2024-02-28T02:22:49;16.80;;;6.90;;
84042;SDS011;74129;52.540;13.416;2024-02-28T02:25:15;13.60;;;7.00;;
84042;SDS011;74129;52.540;13.416;2024-02-28T02:27:41;8.60;;;5.20;;
84042;SDS011;74129;52.540;13.416;2024-02-28T02:30:08;10.40;;;6.50;;
84042;SDS011;74129;52.540;13.416;2024-02-28T02:32:34;11.60;;;6.30;;
84042;SDS011;74129;52.540;13.416;2024-02-28T02:35:01;13.90;;;7.10;;
84042;SDS011;74129;52.540;13.416;2024-02-28T02:37:29;12.80;;;5.80;;
84042;SDS011;74129;52.540;13.416;2024-02-28T02:39:55;12.00;;;6.30;;
84042;SDS011;74129;52.540;13.416;2024-02-28T02:42:22;12.60;;;6.10;;
84042;SDS011;74129;52.540;13.416;2024-02-28T02:44:48;8.90;;;4.80;;
84042;SDS011;74129;52.540;13.416;2024-02-28T02:47:14;11.70;;;5.60;;
84042;SDS011;74129;52.540;13.416;2024-02-28T02:49:41;6.70;;;3.60;;
84042;SDS011;74129;52.540;13.416;2024-02-28T02:52:07;8.00;;;5.20;;
84042;SDS011;74129;52.540;13.416;2024-02-28T02:54:33;10.70;;;6.20;;
84042;SDS011;74129;52.540;13.416;2024-02-28T02:57:00;7.30;;;3.80;;
84042;SDS011;74129;52.540;13.416;2024-02-28T02:59:26;8.80;;;3.80;;
84042;SDS011;74129;52.540;13.416;2024-02-28T03:01:52;7.20;;;4.30;;
84042;SDS011;74129;52.540;13.416;2024-02-28T03:04:19;9.00;;;4.00;;
84042;SDS011;74129;52.540;13.416;2024-02-28T03:06:45;7.40;;;4.50;;
84042;SDS011;74129;52.540;13.416;2024-02-28T03:09:11;7.30;;;3.60;;
84042;SDS011;74129;52.540;13.416;2024-02-28T03:11:38;9.50;;;5.20;;
84042;SDS011;74129;52.540;13.416;2024-02-28T03:14:04;10.60;;;5.50;;
84042;SDS011;74129;52.540;13.416;2024-02-28T03:16:31;5.80;;;3.30;;
84042;SDS011;74129;52.540;13.416;2024-02-28T03:18:57;9.20;;;4.80;;
84042;SDS011;74129;52.540;13.416;2024-02-28T03:21:23;9.60;;;5.40;;
84042;SDS011;74129;52.540;13.416;2024-02-28T03:23:50;9.20;;;5.60;;
84042;SDS011;74129;52.540;13.416;2024-02-28T03:26:16;9.00;;;5.20;;
84042;SDS011;74129;52.540;13.416;2024-02-28T03:28:42;8.90;;;4.30;;
84042;SDS011;74129;52.540;13.416;2024-02-28T03:31:08;9.50;;;5.00;;
84042;SDS011;74129;52.540;13.416;2024-02-28T03:33:35;8.70;;;4.80;;
84042;SDS011;74129;52.540;13.416;2024-02-28T03:36:01;9.70;;;4.90;;
84042;SDS011;74129;52.540;13.416;2024-02-28T03:38:28;8.60;;;5.10;;
84042;SDS011;74129;52.540;13.416;2024-02-28T03:40:54;8.80;;;5.20;;
84042;SDS011;74129;52.540;13.416;2024-02-28T03:43:21;7.00;;;4.30;;
84042;SDS011;74129;52.540;13.416;2024-02-28T03:45:48;10.00;;;5.80;;
84042;SDS011;74129;52.540;13.416;2024-02-28T03:48:15;5.20;;;3.10;;
84042;SDS011;74129;52.540;13.416;2024-02-28T03:50:41;6.60;;;3.90;;
84042;SDS011;74129;52.540;13.416;2024-02-28T03:53:08;6.50;;;4.20;;
84042;SDS011;74129;52.540;13.416;2024-02-28T03:55:34;7.00;;;3.80;;
84042;SDS011;74129;52.540;13.416;2024-02-28T03:58:01;5.40;;;3.40;;
84042;SDS011;74129;52.540;13.416;2024-02-28T04:00:28;7.90;;;4.40;;
84042;SDS011;74129;52.540;13.416;2024-02-28T04:02:55;6.70;;;3.80;;
84042;SDS011;74129;52.540;13.416;2024-02-28T04:05:21;7.00;;;3.90;;
84042;SDS011;74129;52.540;13.416;2024-02-28T04:07:47;5.50;;;3.40;;
84042;SDS011;74129;52.540;13.416;2024-02-28T04:10:14;6.20;;;3.30;;
84042;SDS011;74129;52.540;13.416;2024-02-28T04:12:42;4.40;;;2.70;;
84042;SDS011;74129;52.540;13.416;2024-02-28T04:15:11;4.60;;;3.20;;
84042;SDS011;74129;52.540;13.416;2024-02-28T04:17:39;6.90;;;3.50;;
84042;SDS011;74129;52.540;13.416;2024-02-28T04:20:09;5.30;;;3.10;;
84042;SDS011;74129;52.540;13.416;2024-02-28T04:22:37;4.90;;;2.70;;
84042;SDS011;74129;52.540;13.416;2024-02-28T04:25:04;2.50;;;1.70;;
84042;SDS011;74129;52.540;13.416;2024-02-28T04:27:31;5.20;;;3.30;;
84042;SDS011;74129;52.540;13.416;2024-02-28T04:29:58;5.90;;;3.10;;
84042;SDS011;74129;52.540;13.416;2024-02-28T04:32:24;6.00;;;3.20;;
84042;SDS011;74129;52.540;13.416;2024-02-28T04:34:50;6.80;;;3.50;;
84042;SDS011;74129;52.540;13.416;2024-02-28T04:37:17;4.40;;;2.70;;
84042;SDS011;74129;52.540;13.416;2024-02-28T04:39:43;5.30;;;3.40;;
84042;SDS011;74129;52.540;13.416;2024-02-28T04:42:10;5.20;;;2.90;;
84042;SDS011;74129;52.540;13.416;2024-02-28T04:44:36;5.40;;;3.30;;
84042;SDS011;74129;52.540;13.416;2024-02-28T04:47:03;9.00;;;4.20;;
84042;SDS011;74129;52.540;13.416;2024-02-28T04:49:30;5.80;;;3.80;;
84042;SDS011;74129;52.540;13.416;2024-02-28T04:51:56;5.30;;;3.20;;
84042;SDS011;74129;52.540;13.416;2024-02-28T04:54:23;5.60;;;3.90;;
84042;SDS011;74129;52.540;13.416;2024-02-28T04:56:49;4.50;;;3.30;;
84042;SDS011;74129;52.540;13.416;2024-02-28T04:59:17;7.30;;;3.60;;
84042;SDS011;74129;52.540;13.416;2024-02-28T05:01:43;7.40;;;4.20;;
84042;SDS011;74129;52.540;13.416;2024-02-28T05:04:12;6.50;;;3.80;;
84042;SDS011;74129;52.540;13.416;2024-02-28T05:06:38;5.20;;;3.40;;
84042;SDS011;74129;52.540;13.416;2024-02-28T05:09:05;6.60;;;3.30;;
84042;SDS011;74129;52.540;13.416;2024-02-28T05:11:31;7.40;;;4.60;;
84042;SDS011;74129;52.540;13.416;2024-02-28T05:13:58;5.40;;;3.10;;
84042;SDS011;74129;52.540;13.416;2024-02-28T05:16:24;7.20;;;4.30;;
84042;SDS011;74129;52.540;13.416;2024-02-28T05:18:51;7.80;;;4.00;;
84042;SDS011;74129;52.540;13.416;2024-02-28T05:21:17;9.10;;;4.70;;
84042;SDS011;74129;52.540;13.416;2024-02-28T05:23:43;6.70;;;4.00;;
84042;SDS011;74129;52.540;13.416;2024-02-28T05:26:10;7.40;;;3.80;;
84042;SDS011;74129;52.540;13.416;2024-02-28T05:28:36;6.90;;;3.20;;
84042;SDS011;74129;52.540;13.416;2024-02-28T05:31:03;4.10;;;3.00;;
84042;SDS011;74129;52.540;13.416;2024-02-28T05:33:50;5.40;;;3.20;;
84042;SDS011;74129;52.540;13.416;2024-02-28T05:36:18;5.10;;;3.00;;
84042;SDS011;74129;52.540;13.416;2024-02-28T05:38:47;6.70;;;3.50;;
84042;SDS011;74129;52.540;13.416;2024-02-28T05:41:13;9.70;;;3.50;;
84042;SDS011;74129;52.540;13.416;2024-02-28T05:43:42;5.70;;;3.50;;
84042;SDS011;74129;52.540;13.416;2024-02-28T05:46:08;4.70;;;3.20;;
84042;SDS011;74129;52.540;13.416;2024-02-28T05:48:34;8.30;;;3.90;;
84042;SDS011;74129;52.540;13.416;2024-02-28T05:51:01;5.70;;;3.80;;
84042;SDS011;74129;52.540;13.416;2024-02-28T05:53:29;9.50;;;4.70;;
84042;SDS011;74129;52.540;13.416;2024-02-28T05:56:02;5.80;;;3.60;;
84042;SDS011;74129;52.540;13.416;2024-02-28T05:58:29;5.90;;;3.50;;
84042;SDS011;74129;52.540;13.416;2024-02-28T06:00:55;7.50;;;4.00;;
84042;SDS011;74129;52.540;13.416;2024-02-28T06:03:22;6.80;;;4.20;;
84042;SDS011;74129;52.540;13.416;2024-02-28T06:05:49;6.80;;;3.40;;
84042;SDS011;74129;52.540;13.416;2024-02-28T06:08:15;7.00;;;4.00;;
84042;SDS011;74129;52.540;13.416;2024-02-28T06:10:41;6.10;;;3.50;;
84042;SDS011;74129;52.540;13.416;2024-02-28T06:13:13;5.10;;;3.40;;
84042;SDS011;74129;52.540;13.416;2024-02-28T06:15:39;6.80;;;3.90;;
84042;SDS011;74129;52.540;13.416;2024-02-28T06:18:05;9.20;;;4.80;;
84042;SDS011;74129;52.540;13.416;2024-02-28T06:20:32;6.40;;;3.80;;
84042;SDS011;74129;52.540;13.416;2024-02-28T06:22:58;6.20;;;3.40;;
84042;SDS011;74129;52.540;13.416;2024-02-28T06:25:24;6.40;;;3.90;;
84042;SDS011;74129;52.540;13.416;2024-02-28T06:27:53;8.50;;;4.30;;
84042;SDS011;74129;52.540;13.416;2024-02-28T06:30:20;7.50;;;3.90;;
84042;SDS011;74129;52.540;13.416;2024-02-28T06:32:46;5.90;;;3.70;;
84042;SDS011;74129;52.540;13.416;2024-02-28T06:35:12;8.40;;;4.50;;
84042;SDS011;74129;52.540;13.416;2024-02-28T06:37:39;8.80;;;5.10;;
84042;SDS011;74129;52.540;13.416;2024-02-28T06:40:05;8.10;;;5.00;;
84042;SDS011;74129;52.540;13.416;2024-02-28T06:42:35;9.30;;;5.20;;
84042;SDS011;74129;52.540;13.416;2024-02-28T06:45:02;8.80;;;4.80;;
84042;SDS011;74129;52.540;13.416;2024-02-28T06:47:30;8.30;;;4.60;;
84042;SDS011;74129;52.540;13.416;2024-02-28T06:49:58;9.00;;;4.80;;
84042;SDS011;74129;52.540;13.416;2024-02-28T06:52:25;9.00;;;5.50;;
84042;SDS011;74129;52.540;13.416;2024-02-28T06:54:51;11.30;;;6.20;;
84042;SDS011;74129;52.540;13.416;2024-02-28T06:57:18;7.80;;;4.80;;
84042;SDS011;74129;52.540;13.416;2024-02-28T06:59:44;9.50;;;4.80;;
84042;SDS011;74129;52.540;13.416;2024-02-28T07:02:10;10.20;;;5.80;;
84042;SDS011;74129;52.540;13.416;2024-02-28T07:04:38;11.70;;;6.10;;
84042;SDS011;74129;52.540;13.416;2024-02-28T07:07:04;9.30;;;5.70;;
84042;SDS011;74129;52.540;13.416;2024-02-28T07:09:31;9.20;;;5.10;;
84042;SDS011;74129;52.540;13.416;2024-02-28T07:11:59;10.40;;;5.90;;
84042;SDS011;74129;52.540;13.416;2024-02-28T07:14:29;9.90;;;5.40;;
84042;SDS011;74129;52.540;13.416;2024-02-28T07:16:56;10.30;;;5.70;;
84042;SDS011;74129;52.540;13.416;2024-02-28T07:19:22;8.10;;;4.40;;
84042;SDS011;74129;52.540;13.416;2024-02-28T07:21:48;10.60;;;5.60;;
84042;SDS011;74129;52.540;13.416;2024-02-28T07:24:14;10.10;;;4.90;;
84042;SDS011;74129;52.540;13.416;2024-02-28T07:26:41;10.50;;;4.90;;
84042;SDS011;74129;52.540;13.416;2024-02-28T07:29:08;7.10;;;4.10;;
84042;SDS011;74129;52.540;13.416;2024-02-28T07:31:34;8.40;;;3.50;;
84042;SDS011;74129;52.540;13.416;2024-02-28T07:34:00;7.10;;;3.80;;
84042;SDS011;74129;52.540;13.416;2024-02-28T07:36:27;7.80;;;4.50;;
84042;SDS011;74129;52.540;13.416;2024-02-28T07:38:53;8.70;;;5.30;;
84042;SDS011;74129;52.540;13.416;2024-02-28T07:41:19;10.10;;;5.40;;
84042;SDS011;74129;52.540;13.416;2024-02-28T07:43:46;7.60;;;4.40;;
84042;SDS011;74129;52.540;13.416;2024-02-28T07:46:12;7.20;;;4.50;;
84042;SDS011;74129;52.540;13.416;2024-02-28T07:48:38;6.90;;;4.30;;
84042;SDS011;74129;52.540;13.416;2024-02-28T07:51:05;8.60;;;4.70;;
84042;SDS011;74129;52.540;13.416;2024-02-28T07:53:33;7.80;;;4.40;;
84042;SDS011;74129;52.540;13.416;2024-02-28T07:55:59;8.30;;;4.40;;
84042;SDS011;74129;52.540;13.416;2024-02-28T07:58:25;10.70;;;5.40;;
84042;SDS011;74129;52.540;13.416;2024-02-28T08:00:52;7.10;;;4.30;;
84042;SDS011;74129;52.540;13.416;2024-02-28T08:03:18;9.90;;;4.80;;
84042;SDS011;74129;52.540;13.416;2024-02-28T08:05:45;7.30;;;4.60;;
84042;SDS011;74129;52.540;13.416;2024-02-28T08:08:12;8.80;;;4.30;;
84042;SDS011;74129;52.540;13.416;2024-02-28T08:10:38;6.10;;;3.60;;
84042;SDS011;74129;52.540;13.416;2024-02-28T08:13:05;8.00;;;5.00;;
84042;SDS011;74129;52.540;13.416;2024-02-28T08:15:31;8.70;;;4.60;;
84042;SDS011;74129;52.540;13.416;2024-02-28T08:17:58;9.70;;;5.00;;
84042;SDS011;74129;52.540;13.416;2024-02-28T08:20:24;8.20;;;4.60;;
84042;SDS011;74129;52.540;13.416;2024-02-28T08:22:51;7.50;;;4.80;;
84042;SDS011;74129;52.540;13.416;2024-02-28T08:25:23;7.80;;;4.10;;
84042;SDS011;74129;52.540;13.416;2024-02-28T08:27:49;9.20;;;4.70;;
84042;SDS011;74129;52.540;13.416;2024-02-28T08:30:15;5.40;;;3.60;;
84042;SDS011;74129;52.540;13.416;2024-02-28T08:32:42;6.00;;;3.50;;
84042;SDS011;74129;52.540;13.416;2024-02-28T08:35:08;8.20;;;4.30;;
84042;SDS011;74129;52.540;13.416;2024-02-28T08:37:39;9.20;;;4.60;;
84042;SDS011;74129;52.540;13.416;2024-02-28T08:40:06;9.70;;;4.20;;
84042;SDS011;74129;52.540;13.416;2024-02-28T08:42:33;7.20;;;3.90;;
84042;SDS011;74129;52.540;13.416;2024-02-28T08:44:59;6.80;;;3.90;;
84042;SDS011;74129;52.540;13.416;2024-02-28T08:47:26;6.10;;;4.10;;
84042;SDS011;74129;52.540;13.416;2024-02-28T08:49:53;7.90;;;4.30;;
84042;SDS011;74129;52.540;13.416;2024-02-28T08:52:20;5.90;;;3.90;;
84042;SDS011;74129;52.540;13.416;2024-02-28T08:54:47;7.40;;;4.20;;
84042;SDS011;74129;52.540;13.416;2024-02-28T08:57:15;9.20;;;5.00;;
84042;SDS011;74129;52.540;13.416;2024-02-28T08:59:41;8.70;;;5.10;;
84042;SDS011;74129;52.540;13.416;2024-02-28T09:02:08;8.30;;;5.20;;
84042;SDS011;74129;52.540;13.416;2024-02-28T09:04:34;9.30;;;5.50;;
84042;SDS011;74129;52.540;13.416;2024-02-28T09:07:01;17.60;;;7.20;;
84042;SDS011;74129;52.540;13.416;2024-02-28T09:09:27;11.30;;;7.10;;
84042;SDS011;74129;52.540;13.416;2024-02-28T09:11:56;11.20;;;5.90;;
84042;SDS011;74129;52.540;13.416;2024-02-28T09:14:22;11.30;;;5.70;;
84042;SDS011;74129;52.540;13.416;2024-02-28T09:16:48;12.80;;;6.20;;
84042;SDS011;74129;52.540;13.416;2024-02-28T09:19:15;10.00;;;5.80;;
84042;SDS011;74129;52.540;13.416;2024-02-28T09:21:41;12.30;;;6.80;;
84042;SDS011;74129;52.540;13.416;2024-02-28T09:24:07;8.20;;;5.20;;
84042;SDS011;74129;52.540;13.416;2024-02-28T09:26:38;10.30;;;6.00;;
84042;SDS011;74129;52.540;13.416;2024-02-28T09:29:05;10.20;;;5.80;;
84042;SDS011;74129;52.540;13.416;2024-02-28T09:31:31;10.50;;;5.90;;
84042;SDS011;74129;52.540;13.416;2024-02-28T09:33:57;12.60;;;6.60;;
84042;SDS011;74129;52.540;13.416;2024-02-28T09:36:24;11.60;;;5.60;;
84042;SDS011;74129;52.540;13.416;2024-02-28T09:38:50;12.90;;;6.90;;
84042;SDS011;74129;52.540;13.416;2024-02-28T09:41:17;14.60;;;7.10;;
84042;SDS011;74129;52.540;13.416;2024-02-28T09:43:43;12.60;;;6.50;;
84042;SDS011;74129;52.540;13.416;2024-02-28T09:46:11;10.90;;;6.00;;
84042;SDS011;74129;52.540;13.416;2024-02-28T09:48:39;15.30;;;7.70;;
84042;SDS011;74129;52.540;13.416;2024-02-28T09:51:09;14.50;;;7.90;;
84042;SDS011;74129;52.540;13.416;2024-02-28T09:53:37;16.20;;;8.50;;
84042;SDS011;74129;52.540;13.416;2024-02-28T09:56:04;9.80;;;5.70;;
84042;SDS011;74129;52.540;13.416;2024-02-28T09:58:32;13.10;;;7.20;;
84042;SDS011;74129;52.540;13.416;2024-02-28T10:01:01;11.30;;;6.30;;
84042;SDS011;74129;52.540;13.416;2024-02-28T10:03:30;12.50;;;6.90;;
84042;SDS011;74129;52.540;13.416;2024-02-28T10:05:58;14.20;;;6.90;;
84042;SDS011;74129;52.540;13.416;2024-02-28T10:08:24;12.50;;;7.00;;
84042;SDS011;74129;52.540;13.416;2024-02-28T10:10:52;11.30;;;5.70;;
84042;SDS011;74129;52.540;13.416;2024-02-28T10:13:20;12.20;;;7.40;;
84042;SDS011;74129;52.540;13.416;2024-02-28T10:15:47;7.80;;;4.70;;
84042;SDS011;74129;52.540;13.416;2024-02-28T10:18:15;10.20;;;5.30;;
84042;SDS011;74129;52.540;13.416;2024-02-28T10:20:42;14.60;;;7.50;;
84042;SDS011;74129;52.540;13.416;2024-02-28T10:23:08;12.20;;;6.80;;
84042;SDS011;74129;52.540;13.416;2024-02-28T10:25:42;13.00;;;6.80;;
84042;SDS011;74129;52.540;13.416;2024-02-28T10:28:14;13.70;;;6.70;;
84042;SDS011;74129;52.540;13.416;2024-02-28T10:30:41;11.90;;;6.40;;
84042;SDS011;74129;52.540;13.416;2024-02-28T10:33:10;12.10;;;6.30;;
84042;SDS011;74129;52.540;13.416;2024-02-28T10:35:38;10.90;;;5.90;;
84042;SDS011;74129;52.540;13.416;2024-02-28T10:38:06;13.40;;;7.90;;
84042;SDS011;74129;52.540;13.416;2024-02-28T10:40:32;13.30;;;7.50;;
84042;SDS011;74129;52.540;13.416;2024-02-28T10:42:59;15.70;;;8.50;;
84042;SDS011;74129;52.540;13.416;2024-02-28T10:45:27;10.40;;;6.00;;
84042;SDS011;74129;52.540;13.416;2024-02-28T10:50:23;14.20;;;7.40;;
84042;SDS011;74129;52.540;13.416;2024-02-28T10:52:50;14.70;;;7.80;;
84042;SDS011;74129;52.540;13.416;2024-02-28T10:55:21;14.10;;;8.00;;
84042;SDS011;74129;52.540;13.416;2024-02-28T11:00:25;14.10;;;8.20;;
84042;SDS011;74129;52.540;13.416;2024-02-28T11:02:51;11.50;;;5.70;;
84042;SDS011;74129;52.540;13.416;2024-02-28T11:05:18;11.90;;;6.70;;
84042;SDS011;74129;52.540;13.416;2024-02-28T11:07:45;13.00;;;8.30;;
84042;SDS011;74129;52.540;13.416;2024-02-28T11:10:11;15.50;;;8.80;;
84042;SDS011;74129;52.540;13.416;2024-02-28T11:12:38;19.00;;;10.20;;
84042;SDS011;74129;52.540;13.416;2024-02-28T11:15:05;16.00;;;7.60;;
84042;SDS011;74129;52.540;13.416;2024-02-28T11:17:32;12.60;;;6.20;;
84042;SDS011;74129;52.540;13.416;2024-02-28T11:19:59;12.90;;;7.70;;
84042;SDS011;74129;52.540;13.416;2024-02-28T11:22:28;13.60;;;7.70;;
84042;SDS011;74129;52.540;13.416;2024-02-28T11:24:55;10.30;;;4.90;;
84042;SDS011;74129;52.540;13.416;2024-02-28T11:27:22;13.30;;;7.60;;
84042;SDS011;74129;52.540;13.416;2024-02-28T11:29:49;15.30;;;8.30;;
84042;SDS011;74129;52.540;13.416;2024-02-28T11:32:15;13.20;;;7.90;;
84042;SDS011;74129;52.540;13.416;2024-02-28T11:34:42;10.60;;;6.70;;
84042;SDS011;74129;52.540;13.416;2024-02-28T11:37:10;14.20;;;8.50;;
84042;SDS011;74129;52.540;13.416;2024-02-28T11:39:36;14.90;;;7.60;;
84042;SDS011;74129;52.540;13.416;2024-02-28T11:42:12;15.00;;;8.10;;
84042;SDS011;74129;52.540;13.416;2024-02-28T11:44:40;13.20;;;7.90;;
84042;SDS011;74129;52.540;13.416;2024-02-28T11:47:09;12.00;;;7.30;;
84042;SDS011;74129;52.540;13.416;2024-02-28T11:49:37;12.80;;;6.60;;
84042;SDS011;74129;52.540;13.416;2024-02-28T11:52:04;13.30;;;7.10;;
84042;SDS011;74129;52.540;13.416;2024-02-28T11:54:31;13.10;;;6.60;;
84042;SDS011;74129;52.540;13.416;2024-02-28T11:56:58;14.30;;;7.60;;
84042;SDS011;74129;52.540;13.416;2024-02-28T11:59:24;13.20;;;7.60;;
84042;SDS011;74129;52.540;13.416;2024-02-28T12:01:50;13.80;;;7.50;;
84042;SDS011;74129;52.540;13.416;2024-02-28T12:04:18;13.00;;;7.00;;
84042;SDS011;74129;52.540;13.416;2024-02-28T12:06:44;11.20;;;5.90;;
84042;SDS011;74129;52.540;13.416;2024-02-28T12:09:14;12.20;;;7.10;;
84042;SDS011;74129;52.540;13.416;2024-02-28T12:11:41;9.00;;;5.50;;
84042;SDS011;74129;52.540;13.416;2024-02-28T12:14:07;10.60;;;5.80;;
84042;SDS011;74129;52.540;13.416;2024-02-28T12:19:11;11.30;;;5.60;;
84042;SDS011;74129;52.540;13.416;2024-02-28T12:21:39;11.60;;;6.40;;
84042;SDS011;74129;52.540;13.416;2024-02-28T12:24:09;11.90;;;5.30;;
84042;SDS011;74129;52.540;13.416;2024-02-28T12:26:37;9.40;;;5.40;;
84042;SDS011;74129;52.540;13.416;2024-02-28T12:29:04;6.30;;;3.60;;
84042;SDS011;74129;52.540;13.416;2024-02-28T12:31:30;11.50;;;6.70;;
84042;SDS011;74129;52.540;13.416;2024-02-28T12:33:57;10.00;;;5.80;;
84042;SDS011;74129;52.540;13.416;2024-02-28T12:36:24;9.60;;;4.80;;
84042;SDS011;74129;52.540;13.416;2024-02-28T12:38:51;10.30;;;5.40;;
84042;SDS011;74129;52.540;13.416;2024-02-28T12:41:17;10.20;;;6.10;;
84042;SDS011;74129;52.540;13.416;2024-02-28T12:43:43;8.10;;;4.60;;
84042;SDS011;74129;52.540;13.416;2024-02-28T12:46:09;9.30;;;5.70;;
84042;SDS011;74129;52.540;13.416;2024-02-28T12:48:39;12.50;;;6.80;;
84042;SDS011;74129;52.540;13.416;2024-02-28T12:51:08;10.10;;;5.80;;
84042;SDS011;74129;52.540;13.416;2024-02-28T12:53:37;11.10;;;6.50;;
84042;SDS011;74129;52.540;13.416;2024-02-28T12:56:03;10.80;;;5.80;;
84042;SDS011;74129;52.540;13.416;2024-02-28T12:58:30;11.60;;;6.80;;
84042;SDS011;74129;52.540;13.416;2024-02-28T13:00:56;11.30;;;6.70;;
84042;SDS011;74129;52.540;13.416;2024-02-28T13:03:22;11.50;;;6.60;;
84042;SDS011;74129;52.540;13.416;2024-02-28T13:05:49;12.80;;;6.20;;
84042;SDS011;74129;52.540;13.416;2024-02-28T13:08:15;12.20;;;6.60;;
84042;SDS011;74129;52.540;13.416;2024-02-28T13:10:42;10.20;;;6.10;;
84042;SDS011;74129;52.540;13.416;2024-02-28T13:13:08;9.20;;;5.50;;
84042;SDS011;74129;52.540;13.416;2024-02-28T13:15:34;13.10;;;6.20;;
84042;SDS011;74129;52.540;13.416;2024-02-28T13:18:00;9.80;;;5.80;;
84042;SDS011;74129;52.540;13.416;2024-02-28T13:20:35;10.20;;;5.80;;
84042;SDS011;74129;52.540;13.416;2024-02-28T13:23:01;10.40;;;6.20;;
84042;SDS011;74129;52.540;13.416;2024-02-28T13:25:28;11.10;;;6.20;;
84042;SDS011;74129;52.540;13.416;2024-02-28T13:27:54;10.50;;;5.80;;
84042;SDS011;74129;52.540;13.416;2024-02-28T13:30:20;12.60;;;7.10;;
84042;SDS011;74129;52.540;13.416;2024-02-28T13:32:47;15.30;;;7.80;;
84042;SDS011;74129;52.540;13.416;2024-02-28T13:35:13;16.10;;;8.00;;
84042;SDS011;74129;52.540;13.416;2024-02-28T13:37:40;11.50;;;6.70;;
84042;SDS011;74129;52.540;13.416;2024-02-28T13:40:07;13.20;;;7.30;;
84042;SDS011;74129;52.540;13.416;2024-02-28T13:42:33;12.40;;;7.60;;
84042;SDS011;74129;52.540;13.416;2024-02-28T13:45:00;14.50;;;7.80;;
84042;SDS011;74129;52.540;13.416;2024-02-28T13:47:26;13.20;;;7.10;;
84042;SDS011;74129;52.540;13.416;2024-02-28T13:49:53;13.00;;;6.70;;
84042;SDS011;74129;52.540;13.416;2024-02-28T13:52:19;11.00;;;6.40;;
84042;SDS011;74129;52.540;13.416;2024-02-28T13:54:45;13.60;;;7.60;;
84042;SDS011;74129;52.540;13.416;2024-02-28T13:57:13;14.80;;;7.70;;
84042;SDS011;74129;52.540;13.416;2024-02-28T13:59:39;11.50;;;7.10;;
84042;SDS011;74129;52.540;13.416;2024-02-28T14:02:06;14.20;;;8.60;;
84042;SDS011;74129;52.540;13.416;2024-02-28T14:04:35;14.20;;;8.10;;
84042;SDS011;74129;52.540;13.416;2024-02-28T14:07:01;14.00;;;8.40;;
84042;SDS011;74129;52.540;13.416;2024-02-28T14:09:29;14.70;;;8.10;;
84042;SDS011;74129;52.540;13.416;2024-02-28T14:11:55;15.30;;;9.70;;
84042;SDS011;74129;52.540;13.416;2024-02-28T14:14:21;15.20;;;9.30;;
84042;SDS011;74129;52.540;13.416;2024-02-28T14:16:48;14.60;;;9.60;;
84042;SDS011;74129;52.540;13.416;2024-02-28T14:19:14;14.50;;;9.50;;
84042;SDS011;74129;52.540;13.416;2024-02-28T14:21:40;15.70;;;10.00;;
84042;SDS011;74129;52.540;13.416;2024-02-28T14:24:07;17.50;;;9.70;;
84042;SDS011;74129;52.540;13.416;2024-02-28T14:26:33;15.60;;;10.00;;
84042;SDS011;74129;52.540;13.416;2024-02-28T14:29:00;17.00;;;9.70;;
84042;SDS011;74129;52.540;13.416;2024-02-28T14:31:27;16.10;;;9.00;;